アテネ の空港の天気 - METARとTAF

アテネ国際空港 ( LGAV / ATH ) - ギリシャ アテネ
飛行場実況気象(Metar)
観測時間03/09 08:50 EET (03/09 06:50 UTC)
風向・風速北北東 2m/s
視程10km以上
天気現象
少しの雲 雲底高度 550m
全天の4割程度の雲 雲底高度 910m
気温13℃
湿度77%
気圧1015hPa
METARLGAV 090650Z 03004KT 350V100 9999 FEW018 SCT030 13/09 Q1015 NOSIG
過去の天気等 Google飛行場航空写真 Wunderground天気予報

過去48時間のMETAR

飛行場予報(TAF)
発表時間: 3/09 07:00 EET (3/09 05:00 UTC)
予報対象時間: 9日8時 EET ~ 10日8時 EET
風向・風速不定 3m/s
視程10km以上
少しの雲 雲底高度 550m
全天の4割程度の雲 雲底高度 1070m
9日8時 EET ~ 9日10時 EET に徐々に
風向・風速東 5m/s
9日18時 EET ~ 9日20時 EET に徐々に
風向・風速北 5m/s
少しの雲 雲底高度 610m
TAF LGAV 090500Z 0906/1006 VRB05KT 9999 FEW018 SCT035
BECMG 0906/0908 08010KT
BECMG 0916/0918 01010KT FEW020